sensor_id;sensor_type;location;lat;lon;timestamp;pressure;altitude;pressure_sealevel;temperature;humidity
75219;BME280;63801;49.414;19.474;2023-04-09T00:01:48;94266.19;;;3.46;75.94
75219;BME280;63801;49.414;19.474;2023-04-09T00:03:49;94273.13;;;3.47;75.82
75219;BME280;63801;49.414;19.474;2023-04-09T00:05:49;94274.97;;;3.46;75.74
75219;BME280;63801;49.414;19.474;2023-04-09T00:07:50;94276.28;;;3.49;75.88
75219;BME280;63801;49.414;19.474;2023-04-09T00:09:50;94269.38;;;3.48;76.00
75219;BME280;63801;49.414;19.474;2023-04-09T00:11:50;94270.16;;;3.48;75.76
75219;BME280;63801;49.414;19.474;2023-04-09T00:13:51;94271.44;;;3.51;75.92
75219;BME280;63801;49.414;19.474;2023-04-09T00:15:51;94272.25;;;3.51;75.79
75219;BME280;63801;49.414;19.474;2023-04-09T00:17:51;94271.16;;;3.52;75.85
75219;BME280;63801;49.414;19.474;2023-04-09T00:19:52;94268.22;;;3.54;75.71
75219;BME280;63801;49.414;19.474;2023-04-09T00:21:52;94255.53;;;3.46;75.56
75219;BME280;63801;49.414;19.474;2023-04-09T00:23:52;94261.56;;;3.51;75.70
75219;BME280;63801;49.414;19.474;2023-04-09T00:25:52;94259.72;;;3.52;75.76
75219;BME280;63801;49.414;19.474;2023-04-09T00:27:56;94265.03;;;3.52;75.84
75219;BME280;63801;49.414;19.474;2023-04-09T00:29:56;94266.13;;;3.51;75.58
75219;BME280;63801;49.414;19.474;2023-04-09T00:31:56;94262.66;;;3.50;75.68
75219;BME280;63801;49.414;19.474;2023-04-09T00:33:57;94264.25;;;3.51;75.74
75219;BME280;63801;49.414;19.474;2023-04-09T00:35:57;94267.72;;;3.52;75.83
75219;BME280;63801;49.414;19.474;2023-04-09T00:37:57;94266.13;;;3.51;75.84
75219;BME280;63801;49.414;19.474;2023-04-09T00:39:58;94268.78;;;3.51;75.57
75219;BME280;63801;49.414;19.474;2023-04-09T00:41:59;94265.03;;;3.52;75.82
75219;BME280;63801;49.414;19.474;2023-04-09T00:44:02;94272.75;;;3.53;76.24
75219;BME280;63801;49.414;19.474;2023-04-09T00:46:03;94268.97;;;3.54;75.91
75219;BME280;63801;49.414;19.474;2023-04-09T00:48:03;94271.75;;;3.49;75.96
75219;BME280;63801;49.414;19.474;2023-04-09T00:50:04;94268.22;;;3.54;75.80
75219;BME280;63801;49.414;19.474;2023-04-09T00:52:05;94273.25;;;3.55;75.97
75219;BME280;63801;49.414;19.474;2023-04-09T00:54:06;94271.97;;;3.53;75.82
75219;BME280;63801;49.414;19.474;2023-04-09T00:56:06;94269.78;;;3.55;75.82
75219;BME280;63801;49.414;19.474;2023-04-09T00:58:07;94283.09;;;3.55;75.75
75219;BME280;63801;49.414;19.474;2023-04-09T01:00:08;94274.09;;;3.51;75.96
75219;BME280;63801;49.414;19.474;2023-04-09T01:02:10;94261.97;;;3.45;75.86
75219;BME280;63801;49.414;19.474;2023-04-09T01:04:11;94271.97;;;3.53;75.82
75219;BME280;63801;49.414;19.474;2023-04-09T01:08:58;94284.97;;;3.54;75.63
75219;BME280;63801;49.414;19.474;2023-04-09T01:11:31;94274.91;;;3.51;75.76
75219;BME280;63801;49.414;19.474;2023-04-09T01:13:48;94269.56;;;3.51;75.79
75219;BME280;63801;49.414;19.474;2023-04-09T01:15:55;94278.66;;;3.50;75.92
75219;BME280;63801;49.414;19.474;2023-04-09T01:18:05;94278.66;;;3.50;76.09
75219;BME280;63801;49.414;19.474;2023-04-09T01:20:13;94282.09;;;3.51;76.10
75219;BME280;63801;49.414;19.474;2023-04-09T01:25:43;94286.34;;;3.52;75.88
75219;BME280;63801;49.414;19.474;2023-04-09T01:27:29;94281.81;;;3.52;76.00
75219;BME280;63801;49.414;19.474;2023-04-09T01:29:38;94284.22;;;3.54;75.80
75219;BME280;63801;49.414;19.474;2023-04-09T01:31:41;94289.53;;;3.54;75.77
75219;BME280;63801;49.414;19.474;2023-04-09T01:33:43;94285.28;;;3.53;75.77
75219;BME280;63801;49.414;19.474;2023-04-09T01:35:48;94288.75;;;3.53;75.81
75219;BME280;63801;49.414;19.474;2023-04-09T01:37:51;94285.28;;;3.53;75.91
75219;BME280;63801;49.414;19.474;2023-04-09T01:39:52;94281.03;;;3.52;75.54
75219;BME280;63801;49.414;19.474;2023-04-09T01:41:53;94287.94;;;3.53;75.84
75219;BME280;63801;49.414;19.474;2023-04-09T01:43:55;94295.16;;;3.52;75.73
75219;BME280;63801;49.414;19.474;2023-04-09T01:45:58;94290.63;;;3.53;75.99
75219;BME280;63801;49.414;19.474;2023-04-09T01:48:00;94291.69;;;3.52;75.73
75219;BME280;63801;49.414;19.474;2023-04-09T01:50:01;94291.97;;;3.50;75.75
75219;BME280;63801;49.414;19.474;2023-04-09T01:52:02;94286.94;;;3.49;75.88
75219;BME280;63801;49.414;19.474;2023-04-09T01:54:04;94274.06;;;3.37;75.94
75219;BME280;63801;49.414;19.474;2023-04-09T01:56:05;94282.78;;;3.43;75.87
75219;BME280;63801;49.414;19.474;2023-04-09T01:58:05;94286.16;;;3.48;75.82
75219;BME280;63801;49.414;19.474;2023-04-09T02:00:06;94289.91;;;3.47;75.79
75219;BME280;63801;49.414;19.474;2023-04-09T02:02:11;94285.94;;;3.45;75.81
75219;BME280;63801;49.414;19.474;2023-04-09T02:04:19;94287.22;;;3.47;76.10
75219;BME280;63801;49.414;19.474;2023-04-09T02:06:33;94290.19;;;3.46;75.96
75219;BME280;63801;49.414;19.474;2023-04-09T02:08:38;94274.38;;;3.36;75.81
75219;BME280;63801;49.414;19.474;2023-04-09T02:10:39;94286.72;;;3.45;75.90
75219;BME280;63801;49.414;19.474;2023-04-09T02:12:44;94290.41;;;3.49;75.99
75219;BME280;63801;49.414;19.474;2023-04-09T02:14:50;94285.09;;;3.49;75.96
75219;BME280;63801;49.414;19.474;2023-04-09T02:16:50;94278.16;;;3.48;75.91
75219;BME280;63801;49.414;19.474;2023-04-09T02:18:54;94280.03;;;3.48;76.13
75219;BME280;63801;49.414;19.474;2023-04-09T02:20:56;94276.38;;;3.44;76.01
75219;BME280;63801;49.414;19.474;2023-04-09T02:22:57;94285.72;;;3.41;75.82
75219;BME280;63801;49.414;19.474;2023-04-09T02:24:57;94290.56;;;3.39;75.82
75219;BME280;63801;49.414;19.474;2023-04-09T02:26:58;94284.44;;;3.39;76.16
75219;BME280;63801;49.414;19.474;2023-04-09T02:28:58;94281.78;;;3.39;76.27
75219;BME280;63801;49.414;19.474;2023-04-09T02:30:58;94287.09;;;3.39;76.00
75219;BME280;63801;49.414;19.474;2023-04-09T02:32:59;94279.38;;;3.37;76.04
75219;BME280;63801;49.414;19.474;2023-04-09T02:34:59;94283.63;;;3.38;76.03
75219;BME280;63801;49.414;19.474;2023-04-09T02:36:59;94285.72;;;3.41;76.03
75219;BME280;63801;49.414;19.474;2023-04-09T02:39:00;94288.09;;;3.43;76.13
75219;BME280;63801;49.414;19.474;2023-04-09T02:41:00;94288.91;;;3.43;76.39
75219;BME280;63801;49.414;19.474;2023-04-09T02:43:00;94279.81;;;3.44;76.21
75219;BME280;63801;49.414;19.474;2023-04-09T02:45:01;94277.97;;;3.45;76.21
75219;BME280;63801;49.414;19.474;2023-04-09T02:47:01;94257.38;;;3.32;76.24
75219;BME280;63801;49.414;19.474;2023-04-09T02:49:02;94282.50;;;3.44;76.02
75219;BME280;63801;49.414;19.474;2023-04-09T02:51:04;94275.28;;;3.45;76.04
75219;BME280;63801;49.414;19.474;2023-04-09T02:53:05;94274.50;;;3.44;76.13
75219;BME280;63801;49.414;19.474;2023-04-09T02:55:06;94288.91;;;3.43;75.96
75219;BME280;63801;49.414;19.474;2023-04-09T02:57:06;94273.97;;;3.42;76.16
75219;BME280;63801;49.414;19.474;2023-04-09T02:59:06;94279.31;;;3.42;76.29
75219;BME280;63801;49.414;19.474;2023-04-09T03:01:07;94278.03;;;3.40;76.19
75219;BME280;63801;49.414;19.474;2023-04-09T03:03:07;94278.50;;;3.42;76.04
75219;BME280;63801;49.414;19.474;2023-04-09T03:05:08;94275.84;;;3.42;76.38
75219;BME280;63801;49.414;19.474;2023-04-09T03:07:08;94277.72;;;3.41;76.23
75219;BME280;63801;49.414;19.474;2023-04-09T03:09:08;94278.03;;;3.40;76.39
75219;BME280;63801;49.414;19.474;2023-04-09T03:11:09;94261.13;;;3.31;76.20
75219;BME280;63801;49.414;19.474;2023-04-09T03:13:09;94281.78;;;3.39;76.24
75219;BME280;63801;49.414;19.474;2023-04-09T03:15:10;94281.19;;;3.42;76.14
75219;BME280;63801;49.414;19.474;2023-04-09T03:17:10;94282.84;;;3.38;76.31
75219;BME280;63801;49.414;19.474;2023-04-09T03:19:10;94285.44;;;3.43;76.25
75219;BME280;63801;49.414;19.474;2023-04-09T03:21:11;94280.91;;;3.43;76.52
75219;BME280;63801;49.414;19.474;2023-04-09T03:23:11;94281.19;;;3.42;76.21
75219;BME280;63801;49.414;19.474;2023-04-09T03:25:11;94289.69;;;3.44;76.49
75219;BME280;63801;49.414;19.474;2023-04-09T03:27:12;94280.63;;;3.45;76.52
75219;BME280;63801;49.414;19.474;2023-04-09T03:29:12;94277.44;;;3.43;76.27
75219;BME280;63801;49.414;19.474;2023-04-09T03:31:12;94282.19;;;3.46;76.45
75219;BME280;63801;49.414;19.474;2023-04-09T03:33:13;94280.31;;;3.46;76.45
75219;BME280;63801;49.414;19.474;2023-04-09T03:35:13;94274.50;;;3.44;76.07
75219;BME280;63801;49.414;19.474;2023-04-09T03:37:13;94277.38;;;3.48;76.23
75219;BME280;63801;49.414;19.474;2023-04-09T03:39:14;94282.69;;;3.48;76.51
75219;BME280;63801;49.414;19.474;2023-04-09T03:41:14;94282.41;;;3.49;76.28
75219;BME280;63801;49.414;19.474;2023-04-09T03:43:15;94280.50;;;3.50;76.30
75219;BME280;63801;49.414;19.474;2023-04-09T03:45:15;94277.38;;;3.48;76.49
75219;BME280;63801;49.414;19.474;2023-04-09T03:47:15;94281.91;;;3.47;76.41
75219;BME280;63801;49.414;19.474;2023-04-09T03:49:16;94282.69;;;3.48;76.46
75219;BME280;63801;49.414;19.474;2023-04-09T03:51:17;94276.84;;;3.46;76.31
75219;BME280;63801;49.414;19.474;2023-04-09T03:53:17;94266.84;;;3.38;76.22
75219;BME280;63801;49.414;19.474;2023-04-09T03:55:17;94277.97;;;3.45;76.31
75219;BME280;63801;49.414;19.474;2023-04-09T03:57:18;94289.09;;;3.47;76.50
75219;BME280;63801;49.414;19.474;2023-04-09T03:59:18;94288.91;;;3.43;76.33
75219;BME280;63801;49.414;19.474;2023-04-09T04:01:18;94288.31;;;3.46;76.05
75219;BME280;63801;49.414;19.474;2023-04-09T04:03:19;94286.72;;;3.45;76.30
75219;BME280;63801;49.414;19.474;2023-04-09T04:05:22;94284.72;;;3.37;76.27
75219;BME280;63801;49.414;19.474;2023-04-09T04:07:23;94298.75;;;3.43;76.34
75219;BME280;63801;49.414;19.474;2023-04-09T04:09:23;94299.84;;;3.42;76.18
75219;BME280;63801;49.414;19.474;2023-04-09T04:11:24;94299.34;;;3.40;76.18
75219;BME280;63801;49.414;19.474;2023-04-09T04:13:24;94298.56;;;3.39;76.12
75219;BME280;63801;49.414;19.474;2023-04-09T04:15:24;94308.41;;;3.39;76.35
75219;BME280;63801;49.414;19.474;2023-04-09T04:17:25;94293.03;;;3.36;76.31
75219;BME280;63801;49.414;19.474;2023-04-09T04:19:25;94281.44;;;3.27;76.43
75219;BME280;63801;49.414;19.474;2023-04-09T04:21:25;94294.88;;;3.35;76.14
75219;BME280;63801;49.414;19.474;2023-04-09T04:23:26;94291.44;;;3.35;76.11
75219;BME280;63801;49.414;19.474;2023-04-09T04:25:26;94289.03;;;3.33;76.37
75219;BME280;63801;49.414;19.474;2023-04-09T04:27:27;94304.47;;;3.36;76.17
75219;BME280;63801;49.414;19.474;2023-04-09T04:29:27;94298.34;;;3.36;76.22
75219;BME280;63801;49.414;19.474;2023-04-09T04:31:27;94298.91;;;3.33;76.19
75219;BME280;63801;49.414;19.474;2023-04-09T04:33:28;94296.75;;;3.35;76.33
75219;BME280;63801;49.414;19.474;2023-04-09T04:35:28;94297.03;;;3.33;76.17
75219;BME280;63801;49.414;19.474;2023-04-09T04:37:28;94297.34;;;3.32;76.17
75219;BME280;63801;49.414;19.474;2023-04-09T04:39:30;94299.50;;;3.30;76.07
75219;BME280;63801;49.414;19.474;2023-04-09T04:41:30;94301.63;;;3.28;76.08
75219;BME280;63801;49.414;19.474;2023-04-09T04:43:30;94301.88;;;3.31;76.52
75219;BME280;63801;49.414;19.474;2023-04-09T04:45:31;94302.66;;;3.32;76.37
75219;BME280;63801;49.414;19.474;2023-04-09T04:47:31;94311.94;;;3.34;76.32
75219;BME280;63801;49.414;19.474;2023-04-09T04:49:32;94299.91;;;3.37;76.56
75219;BME280;63801;49.414;19.474;2023-04-09T04:51:32;94301.50;;;3.38;76.49
75219;BME280;63801;49.414;19.474;2023-04-09T04:53:32;94300.91;;;3.41;76.58
75219;BME280;63801;49.414;19.474;2023-04-09T04:55:36;94291.63;;;3.38;76.29
75219;BME280;63801;49.414;19.474;2023-04-09T04:57:38;94296.88;;;3.43;76.30
75219;BME280;63801;49.414;19.474;2023-04-09T04:59:39;94303.75;;;3.49;76.60
75219;BME280;63801;49.414;19.474;2023-04-09T05:01:39;94299.41;;;3.53;76.53
75219;BME280;63801;49.414;19.474;2023-04-09T05:03:40;94298.03;;;3.56;76.05
75219;BME280;63801;49.414;19.474;2023-04-09T05:05:40;94307.03;;;3.60;76.38
75219;BME280;63801;49.414;19.474;2023-04-09T05:07:40;94309.09;;;3.63;76.64
75219;BME280;63801;49.414;19.474;2023-04-09T05:09:41;94309.00;;;3.68;76.67
75219;BME280;63801;49.414;19.474;2023-04-09T05:11:43;94303.41;;;3.70;76.75
75219;BME280;63801;49.414;19.474;2023-04-09T05:13:43;94303.59;;;3.73;76.54
75219;BME280;63801;49.414;19.474;2023-04-09T05:15:43;94314.47;;;3.77;76.73
75219;BME280;63801;49.414;19.474;2023-04-09T05:17:44;94314.72;;;3.80;76.55
75219;BME280;63801;49.414;19.474;2023-04-09T05:19:52;94311.16;;;3.85;76.85
75219;BME280;63801;49.414;19.474;2023-04-09T05:21:53;94306.88;;;4.02;77.12
75219;BME280;63801;49.414;19.474;2023-04-09T05:23:53;94314.81;;;4.35;78.13
75219;BME280;63801;49.414;19.474;2023-04-09T05:25:53;94307.69;;;4.98;77.64
75219;BME280;63801;49.414;19.474;2023-04-09T05:27:54;94314.78;;;5.89;75.89
75219;BME280;63801;49.414;19.474;2023-04-09T05:29:55;94310.59;;;6.66;73.94
75219;BME280;63801;49.414;19.474;2023-04-09T05:31:55;94310.16;;;7.30;72.94
75219;BME280;63801;49.414;19.474;2023-04-09T05:33:55;94317.25;;;7.86;72.43
75219;BME280;63801;49.414;19.474;2023-04-09T05:35:56;94322.41;;;8.42;72.10
75219;BME280;63801;49.414;19.474;2023-04-09T05:37:56;94321.09;;;8.95;71.55
75219;BME280;63801;49.414;19.474;2023-04-09T05:39:56;94320.91;;;9.38;70.67
75219;BME280;63801;49.414;19.474;2023-04-09T05:41:57;94319.81;;;9.60;70.09
75219;BME280;63801;49.414;19.474;2023-04-09T05:43:57;94316.31;;;9.80;69.43
75219;BME280;63801;49.414;19.474;2023-04-09T05:45:58;94328.19;;;10.20;69.43
75219;BME280;63801;49.414;19.474;2023-04-09T05:47:58;94321.78;;;10.58;69.30
75219;BME280;63801;49.414;19.474;2023-04-09T05:49:58;94328.13;;;10.86;68.94
75219;BME280;63801;49.414;19.474;2023-04-09T05:51:59;94329.38;;;11.25;69.02
75219;BME280;63801;49.414;19.474;2023-04-09T05:53:59;94327.66;;;11.69;68.34
75219;BME280;63801;49.414;19.474;2023-04-09T05:56:00;94327.69;;;12.09;68.02
75219;BME280;63801;49.414;19.474;2023-04-09T05:58:00;94331.69;;;12.55;67.53
75219;BME280;63801;49.414;19.474;2023-04-09T06:00:00;94325.81;;;12.96;66.92
75219;BME280;63801;49.414;19.474;2023-04-09T06:02:01;94324.56;;;13.41;65.46
75219;BME280;63801;49.414;19.474;2023-04-09T06:04:01;94327.75;;;13.78;62.50
75219;BME280;63801;49.414;19.474;2023-04-09T06:06:01;94322.78;;;13.99;60.33
75219;BME280;63801;49.414;19.474;2023-04-09T06:08:02;94328.78;;;14.27;63.20
75219;BME280;63801;49.414;19.474;2023-04-09T06:10:02;94327.81;;;14.55;61.61
75219;BME280;63801;49.414;19.474;2023-04-09T06:12:03;94323.84;;;14.91;59.84
75219;BME280;63801;49.414;19.474;2023-04-09T06:14:03;94331.66;;;15.18;58.18
75219;BME280;63801;49.414;19.474;2023-04-09T06:16:06;94325.44;;;15.41;59.42
75219;BME280;63801;49.414;19.474;2023-04-09T06:18:07;94328.00;;;15.79;59.00
75219;BME280;63801;49.414;19.474;2023-04-09T06:20:08;94323.41;;;16.13;57.51
75219;BME280;63801;49.414;19.474;2023-04-09T06:22:09;94332.78;;;16.45;56.62
75219;BME280;63801;49.414;19.474;2023-04-09T06:24:10;94319.50;;;16.74;55.55
75219;BME280;63801;49.414;19.474;2023-04-09T06:26:10;94319.81;;;17.05;55.11
75219;BME280;63801;49.414;19.474;2023-04-09T06:28:11;94324.34;;;17.31;53.37
75219;BME280;63801;49.414;19.474;2023-04-09T06:30:12;94324.41;;;17.38;54.57
75219;BME280;63801;49.414;19.474;2023-04-09T06:32:12;94324.16;;;17.58;54.05
75219;BME280;63801;49.414;19.474;2023-04-09T06:34:12;94331.09;;;17.99;52.96
75219;BME280;63801;49.414;19.474;2023-04-09T06:36:13;94320.72;;;18.26;52.87
75219;BME280;63801;49.414;19.474;2023-04-09T06:38:16;94320.00;;;18.39;50.63
75219;BME280;63801;49.414;19.474;2023-04-09T06:40:17;94321.69;;;18.58;51.76
75219;BME280;63801;49.414;19.474;2023-04-09T06:42:17;94325.66;;;18.82;50.33
75219;BME280;63801;49.414;19.474;2023-04-09T06:44:17;94323.38;;;19.12;48.08
75219;BME280;63801;49.414;19.474;2023-04-09T06:46:19;94323.44;;;19.34;48.05
75219;BME280;63801;49.414;19.474;2023-04-09T06:48:20;94333.16;;;19.35;47.23
75219;BME280;63801;49.414;19.474;2023-04-09T06:50:20;94328.84;;;18.98;46.24
75219;BME280;63801;49.414;19.474;2023-04-09T06:52:20;94327.00;;;18.33;47.15
75219;BME280;63801;49.414;19.474;2023-04-09T06:54:21;94334.44;;;17.75;47.21
75219;BME280;63801;49.414;19.474;2023-04-09T06:56:21;94330.19;;;17.33;48.15
75219;BME280;63801;49.414;19.474;2023-04-09T06:58:21;94319.78;;;17.02;47.75
75219;BME280;63801;49.414;19.474;2023-04-09T07:00:22;94332.75;;;17.12;47.83
75219;BME280;63801;49.414;19.474;2023-04-09T07:02:22;94332.97;;;16.96;47.42
75219;BME280;63801;49.414;19.474;2023-04-09T07:04:22;94340.69;;;16.91;47.58
75219;BME280;63801;49.414;19.474;2023-04-09T07:06:23;94335.94;;;16.81;47.17
75219;BME280;63801;49.414;19.474;2023-04-09T07:08:23;94343.16;;;16.66;47.79
75219;BME280;63801;49.414;19.474;2023-04-09T07:10:24;94335.84;;;16.74;48.02
75219;BME280;63801;49.414;19.474;2023-04-09T07:12:33;94348.00;;;16.83;46.88
75219;BME280;63801;49.414;19.474;2023-04-09T07:14:37;94343.97;;;16.40;47.43
75219;BME280;63801;49.414;19.474;2023-04-09T07:16:37;94350.47;;;16.02;47.30
75219;BME280;63801;49.414;19.474;2023-04-09T07:18:37;94353.34;;;16.13;47.24
75219;BME280;63801;49.414;19.474;2023-04-09T07:20:38;94353.09;;;16.25;46.55
75219;BME280;63801;49.414;19.474;2023-04-09T07:22:38;94357.59;;;16.10;46.27
75219;BME280;63801;49.414;19.474;2023-04-09T07:24:38;94350.41;;;16.29;46.38
75219;BME280;63801;49.414;19.474;2023-04-09T07:26:39;94354.03;;;16.36;46.25
75219;BME280;63801;49.414;19.474;2023-04-09T07:28:39;94353.59;;;16.64;46.56
75219;BME280;63801;49.414;19.474;2023-04-09T07:30:41;94348.13;;;16.94;46.17
75219;BME280;63801;49.414;19.474;2023-04-09T07:32:41;94345.59;;;17.15;46.11
75219;BME280;63801;49.414;19.474;2023-04-09T07:34:43;94346.44;;;17.63;45.70
75219;BME280;63801;49.414;19.474;2023-04-09T07:36:43;94350.91;;;17.89;45.11
75219;BME280;63801;49.414;19.474;2023-04-09T07:38:43;94345.91;;;18.02;44.94
75219;BME280;63801;49.414;19.474;2023-04-09T07:40:44;94344.75;;;17.99;43.36
75219;BME280;63801;49.414;19.474;2023-04-09T07:42:44;94352.34;;;17.72;43.68
75219;BME280;63801;49.414;19.474;2023-04-09T07:44:44;94351.88;;;17.19;43.95
75219;BME280;63801;49.414;19.474;2023-04-09T07:46:46;94357.91;;;16.65;44.31
75219;BME280;63801;49.414;19.474;2023-04-09T07:48:46;94358.53;;;16.25;44.79
75219;BME280;63801;49.414;19.474;2023-04-09T07:50:48;94358.66;;;16.32;45.18
75219;BME280;63801;49.414;19.474;2023-04-09T07:52:49;94361.16;;;16.48;44.31
75219;BME280;63801;49.414;19.474;2023-04-09T07:54:49;94360.25;;;16.67;44.32
75219;BME280;63801;49.414;19.474;2023-04-09T07:56:49;94368.41;;;16.63;45.17
75219;BME280;63801;49.414;19.474;2023-04-09T07:58:50;94359.69;;;16.84;44.53
75219;BME280;63801;49.414;19.474;2023-04-09T08:00:50;94354.97;;;17.18;44.90
75219;BME280;63801;49.414;19.474;2023-04-09T08:02:51;94366.41;;;17.74;45.02
75219;BME280;63801;49.414;19.474;2023-04-09T08:04:51;94359.31;;;18.24;44.70
75219;BME280;63801;49.414;19.474;2023-04-09T08:06:52;94355.63;;;18.61;44.16
75219;BME280;63801;49.414;19.474;2023-04-09T08:08:52;94350.59;;;18.73;43.00
75219;BME280;63801;49.414;19.474;2023-04-09T08:10:53;94356.78;;;18.53;42.32
75219;BME280;63801;49.414;19.474;2023-04-09T08:12:53;94362.41;;;18.19;42.09
75219;BME280;63801;49.414;19.474;2023-04-09T08:14:53;94361.53;;;17.57;42.03
75219;BME280;63801;49.414;19.474;2023-04-09T08:16:53;94367.59;;;16.96;42.30
75219;BME280;63801;49.414;19.474;2023-04-09T08:18:57;94368.47;;;16.40;43.15
75219;BME280;63801;49.414;19.474;2023-04-09T08:20:57;94364.25;;;16.46;43.44
75219;BME280;63801;49.414;19.474;2023-04-09T08:22:57;94369.28;;;16.44;43.38
75219;BME280;63801;49.414;19.474;2023-04-09T08:24:58;94377.19;;;16.23;43.28
75219;BME280;63801;49.414;19.474;2023-04-09T08:26:58;94367.56;;;16.03;43.86
75219;BME280;63801;49.414;19.474;2023-04-09T08:28:59;94375.50;;;15.62;43.47
75219;BME280;63801;49.414;19.474;2023-04-09T08:31:00;94371.50;;;15.11;43.91
75219;BME280;63801;49.414;19.474;2023-04-09T08:33:00;94371.81;;;14.64;44.27
75219;BME280;63801;49.414;19.474;2023-04-09T08:35:01;94362.06;;;14.24;44.67
75219;BME280;63801;49.414;19.474;2023-04-09T08:37:01;94360.38;;;14.01;45.34
75219;BME280;63801;49.414;19.474;2023-04-09T08:39:02;94362.09;;;14.09;45.84
75219;BME280;63801;49.414;19.474;2023-04-09T08:41:04;94370.41;;;14.16;45.65
75219;BME280;63801;49.414;19.474;2023-04-09T08:43:05;94364.81;;;14.09;45.59
75219;BME280;63801;49.414;19.474;2023-04-09T08:45:07;94374.22;;;13.95;45.44
75219;BME280;63801;49.414;19.474;2023-04-09T08:47:08;94368.59;;;13.69;45.67
75219;BME280;63801;49.414;19.474;2023-04-09T08:49:11;94368.97;;;13.52;45.74
75219;BME280;63801;49.414;19.474;2023-04-09T08:51:13;94372.97;;;13.42;46.40
75219;BME280;63801;49.414;19.474;2023-04-09T08:53:14;94371.75;;;13.56;45.85
75219;BME280;63801;49.414;19.474;2023-04-09T08:55:16;94367.22;;;13.28;45.65
75219;BME280;63801;49.414;19.474;2023-04-09T08:57:16;94370.75;;;12.85;46.21
75219;BME280;63801;49.414;19.474;2023-04-09T08:59:17;94358.13;;;12.34;46.60
75219;BME280;63801;49.414;19.474;2023-04-09T09:03:21;94369.03;;;12.09;48.07
75219;BME280;63801;49.414;19.474;2023-04-09T09:05:34;94375.97;;;12.23;49.02
75219;BME280;63801;49.414;19.474;2023-04-09T09:07:35;94377.50;;;12.36;48.82
75219;BME280;63801;49.414;19.474;2023-04-09T09:09:49;94366.59;;;12.32;48.79
75219;BME280;63801;49.414;19.474;2023-04-09T09:11:50;94369.84;;;12.38;49.15
75219;BME280;63801;49.414;19.474;2023-04-09T09:14:05;94379.97;;;12.41;49.12
75219;BME280;63801;49.414;19.474;2023-04-09T09:16:15;94377.50;;;12.36;49.53
75219;BME280;63801;49.414;19.474;2023-04-09T09:18:17;94364.66;;;12.33;49.28
75219;BME280;63801;49.414;19.474;2023-04-09T09:20:19;94369.25;;;12.44;49.59
75219;BME280;63801;49.414;19.474;2023-04-09T09:22:20;94367.00;;;12.62;49.92
75219;BME280;63801;49.414;19.474;2023-04-09T09:24:20;94376.97;;;12.58;48.96
75219;BME280;63801;49.414;19.474;2023-04-09T09:26:28;94362.06;;;12.36;48.87
75219;BME280;63801;49.414;19.474;2023-04-09T09:28:33;94377.53;;;12.24;49.14
75219;BME280;63801;49.414;19.474;2023-04-09T09:30:36;94378.75;;;11.98;49.31
75219;BME280;63801;49.414;19.474;2023-04-09T09:32:38;94377.84;;;11.70;49.39
75219;BME280;63801;49.414;19.474;2023-04-09T09:34:38;94380.34;;;11.39;49.79
75219;BME280;63801;49.414;19.474;2023-04-09T09:36:38;94381.25;;;11.18;50.06
75219;BME280;63801;49.414;19.474;2023-04-09T09:38:53;94380.88;;;10.96;50.25
75219;BME280;63801;49.414;19.474;2023-04-09T09:40:54;94378.94;;;10.84;50.64
75219;BME280;63801;49.414;19.474;2023-04-09T09:42:55;94375.88;;;10.86;51.04
75219;BME280;63801;49.414;19.474;2023-04-09T09:44:57;94380.06;;;10.83;51.24
75219;BME280;63801;49.414;19.474;2023-04-09T09:46:59;94381.63;;;10.84;51.22
75219;BME280;63801;49.414;19.474;2023-04-09T09:49:02;94381.97;;;10.82;51.29
75219;BME280;63801;49.414;19.474;2023-04-09T09:51:07;94376.25;;;10.84;51.43
75219;BME280;63801;49.414;19.474;2023-04-09T09:53:10;94376.00;;;10.89;51.86
75219;BME280;63801;49.414;19.474;2023-04-09T09:55:13;94379.75;;;10.97;51.63
75219;BME280;63801;49.414;19.474;2023-04-09T09:57:17;94382.56;;;11.00;51.52
75219;BME280;63801;49.414;19.474;2023-04-09T09:59:29;94374.38;;;11.09;51.60
75219;BME280;63801;49.414;19.474;2023-04-09T10:01:34;94373.13;;;11.18;51.25
75219;BME280;63801;49.414;19.474;2023-04-09T10:03:37;94372.47;;;11.34;51.14
75219;BME280;63801;49.414;19.474;2023-04-09T10:05:39;94376.72;;;11.47;50.96
75219;BME280;63801;49.414;19.474;2023-04-09T10:07:40;94373.16;;;11.55;50.91
75219;BME280;63801;49.414;19.474;2023-04-09T10:09:45;94368.75;;;11.62;50.85
75219;BME280;63801;49.414;19.474;2023-04-09T10:11:47;94374.03;;;11.71;50.56
75219;BME280;63801;49.414;19.474;2023-04-09T10:14:06;94366.38;;;11.73;50.46
75219;BME280;63801;49.414;19.474;2023-04-09T10:16:07;94363.22;;;11.83;51.01
75219;BME280;63801;49.414;19.474;2023-04-09T10:18:08;94365.75;;;12.04;51.02
75219;BME280;63801;49.414;19.474;2023-04-09T10:20:15;94364.97;;;12.15;49.98
75219;BME280;63801;49.414;19.474;2023-04-09T10:22:20;94358.91;;;12.06;49.69
75219;BME280;63801;49.414;19.474;2023-04-09T10:24:22;94359.59;;;12.03;49.62
75219;BME280;63801;49.414;19.474;2023-04-09T10:26:25;94350.16;;;11.97;50.11
75219;BME280;63801;49.414;19.474;2023-04-09T10:28:30;94353.94;;;12.08;50.21
75219;BME280;63801;49.414;19.474;2023-04-09T10:30:35;94354.47;;;12.14;49.36
75219;BME280;63801;49.414;19.474;2023-04-09T10:32:35;94355.41;;;12.06;49.50
75219;BME280;63801;49.414;19.474;2023-04-09T10:34:41;94348.56;;;11.96;49.25
75219;BME280;63801;49.414;19.474;2023-04-09T10:36:54;94349.16;;;11.90;49.04
75219;BME280;63801;49.414;19.474;2023-04-09T10:38:55;94354.06;;;12.00;50.03
75219;BME280;63801;49.414;19.474;2023-04-09T10:40:55;94355.81;;;12.20;50.13
75219;BME280;63801;49.414;19.474;2023-04-09T10:42:57;94346.72;;;12.40;49.73
75219;BME280;63801;49.414;19.474;2023-04-09T10:45:14;94339.34;;;12.53;49.72
75219;BME280;63801;49.414;19.474;2023-04-09T10:47:30;94338.97;;;12.82;49.00
75219;BME280;63801;49.414;19.474;2023-04-09T10:49:41;94324.69;;;13.13;49.78